Time;durP1;ratioP1;P1;durP2;ratioP2;P2;SDS_P1;SDS_P2;PMS_P1;PMS_P2;Temp;Humidity;BMP_temperature;BMP_pressure;BME280_temperature;BME280_humidity;BME280_pressure;Samples;Min_cycle;Max_cycle;Signal;HPM_P1;HPM_P2
2023/12/16 00:00:01;;;;;;;6.47;4.47;;;9.70;59.50;;;;;;345727;28;892;-56
2023/12/16 00:00:12;;;;;;;6.28;4.32;;;9.70;59.50;;;;;;345703;28;980;-57
2023/12/16 00:00:23;;;;;;;6.32;4.22;;;9.70;59.50;;;;;;345701;28;1087;-59
2023/12/16 00:00:33;;;;;;;6.85;4.70;;;9.70;59.50;;;;;;345604;28;1046;-57
2023/12/16 00:00:44;;;;;;;7.00;4.78;;;9.70;59.50;;;;;;345648;28;996;-57
2023/12/16 00:00:57;;;;;;;7.18;4.60;;;9.70;59.50;;;;;;345699;28;853;-57
2023/12/16 00:01:08;;;;;;;7.47;4.40;;;9.70;59.50;;;;;;345680;28;1050;-55
2023/12/16 00:01:19;;;;;;;7.20;4.43;;;9.70;59.40;;;;;;345680;28;968;-57
2023/12/16 00:01:30;;;;;;;6.07;4.30;;;9.70;59.40;;;;;;345575;28;1085;-56
2023/12/16 00:01:41;;;;;;;5.97;4.18;;;9.70;59.50;;;;;;345513;28;1324;-57
2023/12/16 00:01:52;;;;;;;5.82;3.80;;;9.70;59.60;;;;;;345678;28;1095;-58
2023/12/16 00:02:03;;;;;;;7.05;4.18;;;9.70;59.60;;;;;;345681;28;1130;-58
2023/12/16 00:02:14;;;;;;;7.30;4.25;;;9.70;59.70;;;;;;345692;28;1549;-56
2023/12/16 00:02:25;;;;;;;8.40;4.80;;;9.70;59.70;;;;;;345590;28;1447;-56
2023/12/16 00:02:35;;;;;;;7.90;4.78;;;9.70;59.70;;;;;;345666;28;1035;-56
2023/12/16 00:02:46;;;;;;;7.20;4.37;;;9.70;59.60;;;;;;345683;28;951;-57
2023/12/16 00:02:57;;;;;;;5.82;3.95;;;9.70;59.60;;;;;;345723;28;1012;-57
2023/12/16 00:03:09;;;;;;;5.28;3.65;;;9.70;59.60;;;;;;345651;28;2650;-56
2023/12/16 00:03:20;;;;;;;5.65;3.72;;;9.70;59.60;;;;;;345601;28;888;-57
2023/12/16 00:03:31;;;;;;;6.03;3.70;;;9.70;59.60;;;;;;345624;28;1186;-56
2023/12/16 00:03:42;;;;;;;5.93;3.60;;;9.70;59.60;;;;;;345690;28;821;-56
2023/12/16 00:03:52;;;;;;;6.25;3.63;;;9.70;59.60;;;;;;345643;28;1150;-56
2023/12/16 00:04:03;;;;;;;6.85;3.72;;;9.70;59.70;;;;;;345678;28;1016;-58
2023/12/16 00:04:14;;;;;;;6.53;3.80;;;9.70;59.70;;;;;;345526;28;1200;-56
2023/12/16 00:04:25;;;;;;;6.10;3.97;;;9.70;59.70;;;;;;345669;28;984;-58
2023/12/16 00:04:36;;;;;;;5.40;3.90;;;9.70;59.70;;;;;;345656;28;1147;-57
2023/12/16 00:04:47;;;;;;;5.45;4.00;;;9.70;59.70;;;;;;345696;28;1976;-58
2023/12/16 00:04:57;;;;;;;5.10;3.73;;;9.70;59.70;;;;;;345680;28;1146;-58
2023/12/16 00:05:08;;;;;;;5.05;3.38;;;9.60;59.70;;;;;;345564;28;1040;-57
2023/12/16 00:05:20;;;;;;;5.53;3.55;;;9.60;59.70;;;;;;345713;28;1120;-58
2023/12/16 00:05:30;;;;;;;5.47;3.45;;;9.60;59.80;;;;;;345709;28;1035;-58
2023/12/16 00:05:41;;;;;;;5.22;3.72;;;9.60;59.80;;;;;;345691;28;1063;-58
2023/12/16 00:05:53;;;;;;;4.90;3.60;;;9.60;59.90;;;;;;345652;28;968;-58
2023/12/16 00:06:04;;;;;;;5.13;3.55;;;9.60;59.90;;;;;;345650;28;979;-57
2023/12/16 00:06:18;;;;;;;5.05;3.30;;;9.60;59.90;;;;;;345688;28;1166;-57
2023/12/16 00:06:30;;;;;;;5.25;3.33;;;9.60;59.90;;;;;;345701;28;1035;-57
2023/12/16 00:06:41;;;;;;;5.60;3.40;;;9.60;59.90;;;;;;345684;28;948;-57
2023/12/16 00:06:51;;;;;;;5.35;3.28;;;9.60;59.90;;;;;;345592;28;1063;-57
2023/12/16 00:07:02;;;;;;;5.70;3.33;;;9.60;59.90;;;;;;345673;28;1023;-57
2023/12/16 00:07:13;;;;;;;5.38;3.20;;;9.60;59.90;;;;;;345764;28;860;-57
2023/12/16 00:07:24;;;;;;;5.05;3.13;;;9.60;59.90;;;;;;345687;28;850;-57
2023/12/16 00:07:35;;;;;;;4.33;3.03;;;9.50;60.00;;;;;;345665;28;1979;-58
2023/12/16 00:07:46;;;;;;;4.50;3.20;;;9.60;60.00;;;;;;345642;28;990;-56
2023/12/16 00:07:56;;;;;;;5.78;3.53;;;9.60;60.00;;;;;;345733;28;960;-59
2023/12/16 00:08:07;;;;;;;5.65;3.53;;;9.60;60.00;;;;;;345634;28;1065;-57
2023/12/16 00:08:18;;;;;;;5.40;3.67;;;9.60;59.90;;;;;;345693;28;1215;-60
2023/12/16 00:08:29;;;;;;;4.30;3.35;;;9.60;59.90;;;;;;345657;28;908;-57
2023/12/16 00:08:40;;;;;;;4.20;3.38;;;9.60;59.90;;;;;;345653;28;1501;-57
2023/12/16 00:08:51;;;;;;;4.47;3.17;;;9.60;59.90;;;;;;345620;28;1171;-57
2023/12/16 00:09:01;;;;;;;4.93;3.40;;;9.60;59.90;;;;;;345730;28;970;-57
2023/12/16 00:09:12;;;;;;;5.00;3.43;;;9.50;59.90;;;;;;345605;28;1131;-57
2023/12/16 00:09:23;;;;;;;5.45;3.70;;;9.50;59.90;;;;;;345684;28;983;-57
2023/12/16 00:09:34;;;;;;;5.55;3.78;;;9.50;59.90;;;;;;345646;28;817;-57
2023/12/16 00:09:44;;;;;;;5.40;3.88;;;9.50;59.90;;;;;;345621;28;1461;-57
2023/12/16 00:09:55;;;;;;;6.05;4.20;;;9.50;60.00;;;;;;345646;28;1777;-57
2023/12/16 00:10:07;;;;;;;6.57;4.37;;;9.60;59.90;;;;;;345716;28;927;-56
2023/12/16 00:10:18;;;;;;;6.70;4.78;;;9.60;59.90;;;;;;345693;28;1107;-57
2023/12/16 00:10:28;;;;;;;6.38;4.68;;;9.50;59.80;;;;;;345687;28;850;-57
2023/12/16 00:10:39;;;;;;;6.00;4.47;;;9.50;59.80;;;;;;345615;28;1410;-57
2023/12/16 00:10:50;;;;;;;6.43;4.07;;;9.60;59.80;;;;;;345677;28;972;-56
2023/12/16 00:11:02;;;;;;;5.63;3.60;;;9.50;59.80;;;;;;345676;28;1048;-58
2023/12/16 00:11:13;;;;;;;5.07;3.25;;;9.50;59.80;;;;;;345683;28;1043;-56
2023/12/16 00:11:24;;;;;;;4.95;3.15;;;9.50;59.80;;;;;;345611;28;1039;-57
2023/12/16 00:11:35;;;;;;;5.43;3.10;;;9.50;59.90;;;;;;345722;28;853;-57
2023/12/16 00:11:46;;;;;;;5.20;3.05;;;9.50;59.90;;;;;;345659;28;1075;-58
2023/12/16 00:11:57;;;;;;;5.40;3.35;;;9.50;60.00;;;;;;345674;28;1071;-57
2023/12/16 00:12:08;;;;;;;4.83;3.30;;;9.50;60.00;;;;;;345567;28;964;-56
2023/12/16 00:12:19;;;;;;;4.85;3.50;;;9.50;59.90;;;;;;345731;28;960;-57
2023/12/16 00:12:30;;;;;;;4.60;3.30;;;9.50;59.90;;;;;;345686;28;830;-57
2023/12/16 00:12:40;;;;;;;4.75;3.50;;;9.50;59.90;;;;;;345626;28;846;-56
2023/12/16 00:12:51;;;;;;;5.13;3.40;;;9.50;59.90;;;;;;345550;28;1004;-57
2023/12/16 00:13:02;;;;;;;5.30;3.53;;;9.50;59.90;;;;;;345660;28;1080;-57
2023/12/16 00:13:13;;;;;;;5.28;3.40;;;9.50;59.90;;;;;;345708;28;1027;-57
2023/12/16 00:13:23;;;;;;;5.07;3.60;;;9.50;59.90;;;;;;345738;28;975;-57
2023/12/16 00:13:34;;;;;;;4.90;3.50;;;9.50;60.00;;;;;;345601;28;1142;-56
2023/12/16 00:13:45;;;;;;;4.72;3.50;;;9.50;60.00;;;;;;345660;28;985;-56
2023/12/16 00:13:56;;;;;;;4.83;3.30;;;9.50;60.00;;;;;;345630;28;1317;-57
2023/12/16 00:14:07;;;;;;;5.15;3.33;;;9.50;60.10;;;;;;345696;28;1086;-57
2023/12/16 00:14:18;;;;;;;5.17;3.30;;;9.50;60.10;;;;;;345607;28;1067;-58
2023/12/16 00:14:33;;;;;;;4.85;3.35;;;9.50;60.10;;;;;;345571;28;1091;-57
2023/12/16 00:14:44;;;;;;;4.78;3.50;;;9.50;60.10;;;;;;345701;28;932;-58
2023/12/16 00:14:55;;;;;;;5.40;3.43;;;9.50;60.10;;;;;;345621;28;1022;-57
2023/12/16 00:15:09;;;;;;;5.53;3.33;;;9.50;60.00;;;;;;345651;28;1130;-58
2023/12/16 00:15:19;;;;;;;5.55;3.30;;;9.50;60.00;;;;;;345682;28;1094;-56
2023/12/16 00:15:30;;;;;;;5.50;3.30;;;9.50;60.10;;;;;;345730;28;1066;-57
2023/12/16 00:15:41;;;;;;;5.28;3.28;;;9.50;60.00;;;;;;345678;28;968;-56
2023/12/16 00:15:52;;;;;;;5.28;3.22;;;9.50;60.00;;;;;;345677;28;1816;-57
2023/12/16 00:16:03;;;;;;;5.32;3.25;;;9.50;60.00;;;;;;345606;28;1281;-57
2023/12/16 00:16:14;;;;;;;5.60;3.30;;;9.50;60.10;;;;;;345753;28;892;-56
2023/12/16 00:16:27;;;;;;;7.03;3.35;;;9.50;60.00;;;;;;345589;28;1764;-58
2023/12/16 00:16:44;;;;;;;6.63;3.38;;;9.40;60.10;;;;;;345704;28;1054;-57
2023/12/16 00:16:55;;;;;;;4.72;3.40;;;9.50;60.10;;;;;;345662;28;1103;-56
2023/12/16 00:17:06;;;;;;;4.82;3.40;;;9.40;60.10;;;;;;345546;28;1059;-57
2023/12/16 00:17:17;;;;;;;5.00;3.30;;;9.40;60.10;;;;;;345732;28;901;-57
2023/12/16 00:17:27;;;;;;;5.15;3.22;;;9.40;60.20;;;;;;345673;28;1485;-57
2023/12/16 00:17:38;;;;;;;4.93;3.17;;;9.40;60.20;;;;;;345658;28;1083;-57
2023/12/16 00:17:49;;;;;;;4.67;3.10;;;9.40;60.30;;;;;;345565;28;1440;-57
2023/12/16 00:17:59;;;;;;;5.38;3.15;;;9.40;60.30;;;;;;345719;28;992;-58
2023/12/16 00:18:11;;;;;;;5.43;3.22;;;9.40;60.40;;;;;;345713;28;821;-58
2023/12/16 00:18:22;;;;;;;4.60;3.25;;;9.40;60.30;;;;;;345720;28;1032;-58
2023/12/16 00:18:36;;;;;;;4.35;3.13;;;9.40;60.30;;;;;;345626;28;1007;-56
2023/12/16 00:18:47;;;;;;;4.75;3.10;;;9.40;60.30;;;;;;345696;28;886;-56
2023/12/16 00:18:57;;;;;;;4.57;3.33;;;9.40;60.20;;;;;;345651;28;2565;-57
2023/12/16 00:19:08;;;;;;;5.55;3.78;;;9.40;60.30;;;;;;345574;28;984;-58
2023/12/16 00:19:19;;;;;;;6.40;3.95;;;9.40;60.30;;;;;;345722;28;1040;-59
2023/12/16 00:19:30;;;;;;;6.75;3.88;;;9.40;60.30;;;;;;345648;28;1024;-57
2023/12/16 00:19:41;;;;;;;6.95;3.92;;;9.40;60.30;;;;;;345710;28;845;-57
2023/12/16 00:19:52;;;;;;;6.70;4.07;;;9.40;60.30;;;;;;345643;28;882;-58
2023/12/16 00:20:03;;;;;;;6.88;4.20;;;9.40;60.40;;;;;;345639;28;1428;-57
2023/12/16 00:20:14;;;;;;;6.00;3.92;;;9.40;60.40;;;;;;345656;28;1020;-58
2023/12/16 00:20:25;;;;;;;5.70;3.70;;;9.40;60.40;;;;;;345733;28;841;-57
2023/12/16 00:20:36;;;;;;;4.95;3.58;;;9.40;60.40;;;;;;345572;28;2092;-56
2023/12/16 00:20:47;;;;;;;4.95;3.50;;;9.40;60.40;;;;;;345687;28;926;-57
2023/12/16 00:20:57;;;;;;;4.70;3.35;;;9.40;60.40;;;;;;345716;28;829;-58
2023/12/16 00:21:08;;;;;;;5.55;3.40;;;9.40;60.50;;;;;;345623;28;1781;-57
2023/12/16 00:21:19;;;;;;;5.65;3.30;;;9.40;60.50;;;;;;345589;28;999;-58
2023/12/16 00:21:30;;;;;;;5.50;3.05;;;9.40;60.50;;;;;;345661;28;1330;-56
2023/12/16 00:21:41;;;;;;;4.27;3.00;;;9.40;60.60;;;;;;345693;28;849;-57
2023/12/16 00:21:52;;;;;;;4.65;3.33;;;9.40;60.70;;;;;;345708;28;1055;-57
2023/12/16 00:22:03;;;;;;;4.95;3.60;;;9.40;60.60;;;;;;345601;28;1010;-57
2023/12/16 00:22:13;;;;;;;5.13;3.88;;;9.40;60.60;;;;;;345695;28;882;-56
2023/12/16 00:22:25;;;;;;;5.07;3.70;;;9.40;60.60;;;;;;345678;28;923;-57
2023/12/16 00:22:39;;;;;;;5.13;3.70;;;9.40;60.50;;;;;;345653;28;1124;-57
2023/12/16 00:22:50;;;;;;;4.43;3.47;;;9.40;60.50;;;;;;345719;28;988;-57
2023/12/16 00:23:01;;;;;;;4.70;3.55;;;9.40;60.60;;;;;;345693;28;964;-57
2023/12/16 00:23:12;;;;;;;5.45;3.60;;;9.40;60.60;;;;;;345606;28;1066;-59
2023/12/16 00:23:22;;;;;;;6.30;3.80;;;9.40;60.50;;;;;;345654;28;1091;-57
2023/12/16 00:23:33;;;;;;;6.65;3.70;;;9.40;60.60;;;;;;345715;28;837;-56
2023/12/16 00:23:44;;;;;;;6.97;3.72;;;9.40;60.60;;;;;;345559;28;1086;-57
2023/12/16 00:23:55;;;;;;;6.13;3.40;;;9.40;60.60;;;;;;345641;28;1071;-56
2023/12/16 00:24:08;;;;;;;5.70;3.42;;;9.40;60.60;;;;;;345657;28;1008;-57
2023/12/16 00:24:19;;;;;;;5.47;3.47;;;9.40;60.60;;;;;;345582;28;917;-56
2023/12/16 00:24:30;;;;;;;5.40;3.60;;;9.40;60.50;;;;;;345661;28;1794;-57
2023/12/16 00:24:41;;;;;;;4.80;3.67;;;9.40;60.60;;;;;;345616;28;1035;-57
2023/12/16 00:24:51;;;;;;;4.65;3.60;;;9.40;60.60;;;;;;345542;28;1055;-58
2023/12/16 00:25:02;;;;;;;4.90;3.47;;;9.40;60.70;;;;;;345634;28;1510;-57
2023/12/16 00:25:13;;;;;;;4.95;3.30;;;9.40;60.70;;;;;;345703;28;988;-57
2023/12/16 00:25:24;;;;;;;4.85;3.35;;;9.40;60.70;;;;;;345567;28;1050;-57
2023/12/16 00:25:35;;;;;;;4.73;3.40;;;9.40;60.60;;;;;;345659;28;813;-56
2023/12/16 00:25:45;;;;;;;4.53;3.40;;;9.40;60.60;;;;;;345718;28;925;-56
2023/12/16 00:25:57;;;;;;;4.43;3.38;;;9.40;60.60;;;;;;345571;28;1027;-56
2023/12/16 00:26:07;;;;;;;4.25;3.20;;;9.40;60.50;;;;;;345668;28;2000;-57
2023/12/16 00:26:18;;;;;;;4.40;3.25;;;9.40;60.50;;;;;;345580;28;1131;-57
2023/12/16 00:26:29;;;;;;;4.70;3.22;;;9.40;60.50;;;;;;345649;28;886;-56
2023/12/16 00:26:40;;;;;;;4.60;3.20;;;9.40;60.50;;;;;;345626;28;1063;-57
2023/12/16 00:26:51;;;;;;;4.30;3.20;;;9.30;60.50;;;;;;345696;28;1000;-58
2023/12/16 00:27:02;;;;;;;3.83;3.20;;;9.40;60.50;;;;;;345603;28;1016;-56
2023/12/16 00:27:13;;;;;;;4.07;3.40;;;9.40;60.50;;;;;;345627;28;1097;-57
2023/12/16 00:27:24;;;;;;;4.68;3.40;;;9.40;60.50;;;;;;345697;28;853;-58
2023/12/16 00:27:35;;;;;;;5.05;3.45;;;9.40;60.50;;;;;;345567;28;1906;-57
2023/12/16 00:27:46;;;;;;;4.86;3.28;;;9.40;60.50;;;;;;345537;28;954;-56
2023/12/16 00:27:57;;;;;;;4.57;3.20;;;9.40;60.50;;;;;;345594;28;1304;-57
2023/12/16 00:28:08;;;;;;;5.05;3.40;;;9.40;60.60;;;;;;345685;28;1031;-58
2023/12/16 00:28:19;;;;;;;4.85;3.40;;;9.40;60.60;;;;;;345668;28;1043;-57
2023/12/16 00:28:30;;;;;;;5.13;3.85;;;9.30;60.60;;;;;;345547;28;1301;-58
2023/12/16 00:28:40;;;;;;;6.10;3.70;;;9.40;60.60;;;;;;345574;28;1521;-58
2023/12/16 00:28:51;;;;;;;6.25;3.55;;;9.40;60.50;;;;;;345625;28;1440;-56
2023/12/16 00:29:02;;;;;;;5.95;3.45;;;9.40;60.50;;;;;;345620;28;1028;-59
2023/12/16 00:29:13;;;;;;;4.97;3.50;;;9.40;60.50;;;;;;345566;28;1063;-57
2023/12/16 00:29:24;;;;;;;5.03;3.67;;;9.40;60.50;;;;;;345691;28;1150;-57
2023/12/16 00:29:34;;;;;;;5.25;3.70;;;9.40;60.40;;;;;;345597;28;1060;-57
2023/12/16 00:29:45;;;;;;;5.22;3.63;;;9.30;60.40;;;;;;345690;28;830;-57
2023/12/16 00:29:56;;;;;;;4.78;3.45;;;9.40;60.40;;;;;;345598;28;1023;-57
2023/12/16 00:30:08;;;;;;;4.60;3.30;;;9.40;60.40;;;;;;345676;28;1039;-57
2023/12/16 00:30:18;;;;;;;4.72;3.35;;;9.40;60.40;;;;;;345663;28;1140;-57
2023/12/16 00:30:29;;;;;;;5.15;3.40;;;9.30;60.40;;;;;;345659;28;1055;-57
2023/12/16 00:30:40;;;;;;;4.95;3.60;;;9.40;60.40;;;;;;345611;28;1027;-57
2023/12/16 00:30:51;;;;;;;5.35;3.65;;;9.40;60.40;;;;;;345679;28;1196;-57
2023/12/16 00:31:01;;;;;;;5.10;3.70;;;9.40;60.40;;;;;;345674;28;845;-56
2023/12/16 00:31:12;;;;;;;5.43;3.70;;;9.40;60.30;;;;;;345623;28;992;-57
2023/12/16 00:31:23;;;;;;;5.80;3.93;;;9.40;60.30;;;;;;345584;28;1038;-57
2023/12/16 00:31:34;;;;;;;5.65;3.85;;;9.40;60.30;;;;;;345688;28;1280;-56
2023/12/16 00:31:45;;;;;;;5.43;3.88;;;9.40;60.30;;;;;;345665;28;1252;-56
2023/12/16 00:31:55;;;;;;;5.82;3.85;;;9.40;60.30;;;;;;345664;28;874;-57
2023/12/16 00:32:06;;;;;;;6.18;4.10;;;9.40;60.30;;;;;;345565;28;1234;-57
2023/12/16 00:32:18;;;;;;;7.63;4.15;;;9.30;60.20;;;;;;345561;28;1000;-58
2023/12/16 00:32:29;;;;;;;6.75;3.78;;;9.30;60.20;;;;;;345704;28;829;-57
2023/12/16 00:32:41;;;;;;;6.15;3.58;;;9.40;60.20;;;;;;345637;28;1020;-58
2023/12/16 00:32:51;;;;;;;5.10;3.67;;;9.40;60.20;;;;;;345682;28;1089;-58
2023/12/16 00:33:02;;;;;;;5.30;3.88;;;9.30;60.20;;;;;;345587;28;1111;-56
2023/12/16 00:33:13;;;;;;;4.80;3.80;;;9.40;60.20;;;;;;345574;28;995;-56
2023/12/16 00:33:24;;;;;;;4.93;3.70;;;9.40;60.20;;;;;;345678;28;1021;-57
2023/12/16 00:33:34;;;;;;;6.13;3.87;;;9.40;60.20;;;;;;345678;28;856;-57
2023/12/16 00:33:45;;;;;;;6.40;3.93;;;9.40;60.30;;;;;;345636;28;1043;-57
2023/12/16 00:33:56;;;;;;;6.05;4.00;;;9.40;60.20;;;;;;345688;28;810;-56
2023/12/16 00:34:07;;;;;;;5.10;3.70;;;9.40;60.20;;;;;;345572;28;1051;-55
2023/12/16 00:34:18;;;;;;;4.97;3.72;;;9.40;60.20;;;;;;345605;28;957;-57
2023/12/16 00:34:29;;;;;;;4.95;3.75;;;9.40;60.10;;;;;;345677;28;834;-57
2023/12/16 00:34:40;;;;;;;4.75;3.72;;;9.40;60.10;;;;;;345657;28;1123;-59
2023/12/16 00:34:51;;;;;;;6.30;3.73;;;9.40;60.10;;;;;;345617;28;1119;-57
2023/12/16 00:35:02;;;;;;;6.40;3.75;;;9.40;60.10;;;;;;345544;28;1069;-58
2023/12/16 00:35:13;;;;;;;6.63;3.75;;;9.40;60.20;;;;;;345599;28;1525;-56
2023/12/16 00:35:24;;;;;;;5.05;3.70;;;9.40;60.20;;;;;;345691;28;915;-58
2023/12/16 00:35:35;;;;;;;5.18;3.60;;;9.40;60.30;;;;;;345647;28;968;-57
2023/12/16 00:35:46;;;;;;;4.93;3.60;;;9.40;60.30;;;;;;345626;28;1019;-57
2023/12/16 00:35:56;;;;;;;5.15;3.63;;;9.40;60.30;;;;;;345580;28;1056;-58
2023/12/16 00:36:08;;;;;;;5.15;3.67;;;9.40;60.30;;;;;;345665;28;1361;-57
2023/12/16 00:36:18;;;;;;;5.25;3.75;;;9.40;60.30;;;;;;345660;28;1016;-57
2023/12/16 00:36:29;;;;;;;5.40;4.00;;;9.30;60.30;;;;;;345684;28;830;-57
2023/12/16 00:36:41;;;;;;;6.07;4.05;;;9.40;60.30;;;;;;345670;28;838;-57
2023/12/16 00:36:52;;;;;;;5.88;3.72;;;9.40;60.30;;;;;;345555;28;2002;-57
2023/12/16 00:37:06;;;;;;;6.22;3.90;;;9.40;60.30;;;;;;345608;28;976;-57
2023/12/16 00:37:17;;;;;;;6.00;4.07;;;9.30;60.20;;;;;;345656;28;1525;-57
2023/12/16 00:37:27;;;;;;;5.88;4.10;;;9.40;60.20;;;;;;345616;28;898;-57
2023/12/16 00:37:38;;;;;;;5.47;4.10;;;9.40;60.20;;;;;;345603;28;912;-58
2023/12/16 00:37:49;;;;;;;5.72;4.18;;;9.40;60.20;;;;;;345585;28;1080;-57
2023/12/16 00:38:00;;;;;;;5.80;4.22;;;9.40;60.20;;;;;;345600;28;1059;-57
2023/12/16 00:38:11;;;;;;;5.85;4.07;;;9.40;60.20;;;;;;345670;28;904;-59
2023/12/16 00:38:22;;;;;;;5.95;3.90;;;9.40;60.30;;;;;;345595;28;1569;-56
2023/12/16 00:38:33;;;;;;;5.70;3.75;;;9.40;60.30;;;;;;345610;28;1079;-57
2023/12/16 00:38:43;;;;;;;6.28;3.85;;;9.40;60.20;;;;;;345603;28;1034;-56
2023/12/16 00:38:54;;;;;;;6.55;4.40;;;9.40;60.20;;;;;;345660;28;1078;-56
2023/12/16 00:39:07;;;;;;;8.27;5.93;;;9.40;60.10;;;;;;345565;28;1432;-56
2023/12/16 00:39:18;;;;;;;8.52;6.57;;;9.40;60.10;;;;;;345651;28;927;-57
2023/12/16 00:39:29;;;;;;;8.93;6.13;;;9.40;60.10;;;;;;345627;28;1076;-58
2023/12/16 00:39:39;;;;;;;7.90;5.38;;;9.40;60.10;;;;;;345634;28;853;-57
2023/12/16 00:39:50;;;;;;;7.15;4.90;;;9.40;60.10;;;;;;345535;28;888;-57
2023/12/16 00:40:02;;;;;;;6.07;4.55;;;9.40;60.10;;;;;;345674;28;1850;-57
2023/12/16 00:40:13;;;;;;;6.07;4.35;;;9.40;60.10;;;;;;345692;28;984;-56
2023/12/16 00:40:24;;;;;;;5.78;4.20;;;9.30;60.20;;;;;;345671;28;877;-56
2023/12/16 00:40:35;;;;;;;5.93;4.15;;;9.40;60.20;;;;;;345515;28;980;-56
2023/12/16 00:40:45;;;;;;;6.40;4.10;;;9.40;60.30;;;;;;345700;28;873;-57
2023/12/16 00:40:56;;;;;;;6.83;4.07;;;9.40;60.30;;;;;;345582;28;1080;-57
2023/12/16 00:41:07;;;;;;;6.78;4.00;;;9.40;60.30;;;;;;345469;28;1855;-56
2023/12/16 00:41:18;;;;;;;6.20;4.07;;;9.40;60.30;;;;;;345345;28;1448;-57
2023/12/16 00:41:29;;;;;;;5.75;3.85;;;9.30;60.30;;;;;;345385;28;1032;-57
2023/12/16 00:41:40;;;;;;;5.03;3.75;;;9.30;60.30;;;;;;345450;28;1870;-56
2023/12/16 00:41:51;;;;;;;5.63;3.88;;;9.30;60.30;;;;;;345428;28;988;-57
2023/12/16 00:42:02;;;;;;;5.80;4.05;;;9.30;60.30;;;;;;345468;28;1047;-57
2023/12/16 00:42:12;;;;;;;5.93;4.05;;;9.30;60.30;;;;;;345633;28;1079;-58
2023/12/16 00:42:23;;;;;;;5.55;4.15;;;9.30;60.30;;;;;;345621;28;1000;-58
2023/12/16 00:42:34;;;;;;;5.70;4.10;;;9.30;60.30;;;;;;345590;28;1006;-57
2023/12/16 00:42:45;;;;;;;5.50;4.07;;;9.30;60.40;;;;;;345631;28;991;-58
2023/12/16 00:42:55;;;;;;;5.60;4.13;;;9.30;60.40;;;;;;345613;28;829;-57
2023/12/16 00:43:06;;;;;;;6.03;4.13;;;9.30;60.40;;;;;;345561;28;985;-57
2023/12/16 00:43:17;;;;;;;5.45;3.78;;;9.30;60.40;;;;;;345682;28;1058;-57
2023/12/16 00:43:28;;;;;;;5.20;3.60;;;9.30;60.40;;;;;;345615;28;881;-56
2023/12/16 00:43:39;;;;;;;4.60;3.70;;;9.30;60.50;;;;;;345600;28;1123;-57
2023/12/16 00:43:50;;;;;;;5.45;4.10;;;9.30;60.50;;;;;;345598;28;1326;-56
2023/12/16 00:44:01;;;;;;;5.63;4.20;;;9.30;60.40;;;;;;345618;28;1092;-58
2023/12/16 00:44:12;;;;;;;5.40;4.10;;;9.30;60.50;;;;;;345542;28;1087;-57
2023/12/16 00:44:22;;;;;;;5.32;4.00;;;9.30;60.50;;;;;;345637;28;821;-58
2023/12/16 00:44:33;;;;;;;5.80;4.20;;;9.30;60.50;;;;;;345589;28;1750;-57
2023/12/16 00:44:44;;;;;;;6.00;4.22;;;9.30;60.50;;;;;;345550;28;1065;-57
2023/12/16 00:44:58;;;;;;;5.53;4.07;;;9.30;60.50;;;;;;345641;28;911;-57
2023/12/16 00:45:09;;;;;;;5.90;4.13;;;9.30;60.50;;;;;;345621;28;1415;-57
2023/12/16 00:45:20;;;;;;;6.18;4.25;;;9.30;60.50;;;;;;345509;28;1476;-57
2023/12/16 00:45:30;;;;;;;6.47;4.45;;;9.30;60.40;;;;;;345550;28;1501;-57
2023/12/16 00:45:41;;;;;;;6.15;4.53;;;9.30;60.40;;;;;;345606;28;1013;-56
2023/12/16 00:45:52;;;;;;;6.22;4.55;;;9.30;60.40;;;;;;345569;28;1540;-56
2023/12/16 00:46:03;;;;;;;6.00;4.30;;;9.30;60.40;;;;;;345611;28;864;-56
2023/12/16 00:46:14;;;;;;;6.30;4.10;;;9.30;60.40;;;;;;345640;28;1008;-57
2023/12/16 00:46:24;;;;;;;6.00;3.90;;;9.30;60.40;;;;;;345515;28;996;-56
2023/12/16 00:46:36;;;;;;;5.93;4.07;;;9.30;60.30;;;;;;345669;28;833;-57
2023/12/16 00:46:46;;;;;;;5.30;4.10;;;9.30;60.30;;;;;;345572;28;1423;-57
2023/12/16 00:46:58;;;;;;;5.78;4.28;;;9.30;60.30;;;;;;345563;28;1034;-57
2023/12/16 00:47:08;;;;;;;5.50;4.03;;;9.40;60.30;;;;;;345632;28;1024;-56
2023/12/16 00:47:19;;;;;;;6.07;4.18;;;9.30;60.30;;;;;;345616;28;1086;-57
2023/12/16 00:47:30;;;;;;;5.78;4.20;;;9.30;60.30;;;;;;345536;28;1985;-56
2023/12/16 00:47:41;;;;;;;5.80;4.22;;;9.30;60.30;;;;;;345601;28;1876;-57
2023/12/16 00:47:51;;;;;;;5.53;4.25;;;9.30;60.30;;;;;;345576;28;1816;-57
2023/12/16 00:48:02;;;;;;;6.47;4.47;;;9.30;60.30;;;;;;345645;28;813;-57
2023/12/16 00:48:13;;;;;;;7.07;4.78;;;9.30;60.30;;;;;;345653;28;948;-58
2023/12/16 00:48:24;;;;;;;7.22;4.85;;;9.30;60.30;;;;;;345613;28;960;-57
2023/12/16 00:48:35;;;;;;;6.38;4.72;;;9.30;60.30;;;;;;345595;28;1079;-58
2023/12/16 00:48:45;;;;;;;6.05;4.55;;;9.30;60.30;;;;;;345548;28;1013;-59
2023/12/16 00:48:56;;;;;;;5.87;4.40;;;9.30;60.30;;;;;;345576;28;913;-57
2023/12/16 00:49:07;;;;;;;5.95;4.30;;;9.30;60.40;;;;;;345656;28;861;-57
2023/12/16 00:49:18;;;;;;;6.05;4.25;;;9.30;60.40;;;;;;345634;28;993;-59
2023/12/16 00:49:28;;;;;;;7.65;4.32;;;9.30;60.50;;;;;;345555;28;1664;-58
2023/12/16 00:49:39;;;;;;;7.45;4.40;;;9.30;60.50;;;;;;345580;28;953;-57
2023/12/16 00:49:50;;;;;;;7.28;4.60;;;9.30;60.50;;;;;;345571;28;833;-57
2023/12/16 00:50:01;;;;;;;5.83;4.50;;;9.30;60.50;;;;;;345629;28;877;-58
2023/12/16 00:50:12;;;;;;;6.05;4.57;;;9.30;60.50;;;;;;345630;28;1071;-57
2023/12/16 00:50:24;;;;;;;6.00;4.40;;;9.30;60.50;;;;;;345717;28;912;-57
2023/12/16 00:50:38;;;;;;;6.47;4.60;;;9.30;60.50;;;;;;345532;28;1294;-57
2023/12/16 00:50:48;;;;;;;6.72;4.43;;;9.30;60.50;;;;;;345554;28;915;-57
2023/12/16 00:51:00;;;;;;;6.85;4.35;;;9.30;60.60;;;;;;345631;28;818;-58
2023/12/16 00:51:10;;;;;;;6.60;4.40;;;9.30;60.60;;;;;;345641;28;948;-57
2023/12/16 00:51:21;;;;;;;6.47;4.50;;;9.30;60.60;;;;;;345554;28;1031;-58
2023/12/16 00:51:32;;;;;;;6.65;4.88;;;9.20;60.60;;;;;;345630;28;972;-57
2023/12/16 00:51:43;;;;;;;6.53;4.88;;;9.30;60.60;;;;;;345690;28;859;-56
2023/12/16 00:51:56;;;;;;;7.00;4.97;;;9.30;60.50;;;;;;345573;28;846;-57
2023/12/16 00:52:07;;;;;;;7.25;5.05;;;9.30;60.50;;;;;;345698;28;1008;-59
2023/12/16 00:52:18;;;;;;;7.22;4.97;;;9.30;60.50;;;;;;345551;28;920;-58
2023/12/16 00:52:28;;;;;;;6.35;4.78;;;9.30;60.50;;;;;;345691;28;818;-57
2023/12/16 00:52:39;;;;;;;5.97;4.88;;;9.30;60.60;;;;;;345545;28;1170;-58
2023/12/16 00:52:50;;;;;;;6.60;5.30;;;9.30;60.60;;;;;;345582;28;884;-57
2023/12/16 00:53:01;;;;;;;7.32;5.25;;;9.30;60.60;;;;;;345634;28;1015;-57
2023/12/16 00:53:12;;;;;;;8.27;5.15;;;9.30;60.50;;;;;;345687;28;861;-57
2023/12/16 00:53:23;;;;;;;7.60;5.00;;;9.30;60.50;;;;;;345599;28;884;-58
2023/12/16 00:53:34;;;;;;;7.37;4.90;;;9.30;60.50;;;;;;345609;28;1102;-58
2023/12/16 00:53:45;;;;;;;7.40;5.23;;;9.30;60.50;;;;;;345586;28;1090;-57
2023/12/16 00:53:55;;;;;;;8.77;5.88;;;9.30;60.40;;;;;;345552;28;908;-58
2023/12/16 00:54:06;;;;;;;11.05;6.80;;;9.30;60.40;;;;;;345632;28;900;-58
2023/12/16 00:54:17;;;;;;;11.40;6.80;;;9.30;60.40;;;;;;345716;28;1035;-58
2023/12/16 00:54:28;;;;;;;10.30;6.72;;;9.30;60.40;;;;;;345486;28;992;-58
2023/12/16 00:54:39;;;;;;;13.20;10.33;;;9.30;60.40;;;;;;345668;28;929;-56
2023/12/16 00:54:51;;;;;;;15.13;12.45;;;9.30;60.40;;;;;;345521;28;1068;-57
2023/12/16 00:55:02;;;;;;;14.65;12.18;;;9.30;60.30;;;;;;345511;28;2000;-56
2023/12/16 00:55:13;;;;;;;11.02;8.52;;;9.30;60.30;;;;;;345605;28;1094;-56
2023/12/16 00:55:24;;;;;;;9.65;7.28;;;9.30;60.30;;;;;;345633;28;2248;-58
2023/12/16 00:55:35;;;;;;;8.80;6.38;;;9.30;60.40;;;;;;345500;28;1241;-57
2023/12/16 00:55:45;;;;;;;7.95;5.63;;;9.30;60.40;;;;;;345664;28;853;-59
2023/12/16 00:55:56;;;;;;;7.03;4.90;;;9.30;60.40;;;;;;345561;28;830;-58
2023/12/16 00:56:09;;;;;;;6.60;4.63;;;9.20;60.50;;;;;;345538;28;1078;-57
2023/12/16 00:56:20;;;;;;;6.95;4.47;;;9.30;60.50;;;;;;345648;28;992;-56
2023/12/16 00:56:31;;;;;;;7.05;4.30;;;9.30;60.50;;;;;;345659;28;1576;-58
2023/12/16 00:56:41;;;;;;;6.97;4.40;;;9.20;60.50;;;;;;345596;28;939;-58
2023/12/16 00:56:52;;;;;;;6.88;4.45;;;9.20;60.60;;;;;;345570;28;1993;-58
2023/12/16 00:57:03;;;;;;;6.30;4.43;;;9.20;60.50;;;;;;345709;28;838;-57
2023/12/16 00:57:14;;;;;;;6.28;4.30;;;9.20;60.50;;;;;;345516;28;1965;-58
2023/12/16 00:57:25;;;;;;;5.97;4.27;;;9.20;60.40;;;;;;345632;28;1881;-57
2023/12/16 00:57:35;;;;;;;6.10;4.40;;;9.20;60.40;;;;;;345571;28;1131;-58
2023/12/16 00:57:46;;;;;;;5.85;4.55;;;9.30;60.40;;;;;;345616;28;915;-57
2023/12/16 00:57:57;;;;;;;6.97;4.55;;;9.20;60.40;;;;;;345532;28;1163;-56
2023/12/16 00:58:08;;;;;;;7.60;4.50;;;9.20;60.40;;;;;;345607;28;980;-58
2023/12/16 00:58:19;;;;;;;7.50;4.53;;;9.20;60.40;;;;;;345543;28;1076;-62
2023/12/16 00:58:30;;;;;;;6.35;4.47;;;9.20;60.50;;;;;;345650;28;811;-57
2023/12/16 00:58:40;;;;;;;5.65;4.30;;;9.20;60.50;;;;;;345533;28;1044;-57
2023/12/16 00:58:54;;;;;;;4.93;4.07;;;9.20;60.50;;;;;;345604;28;1945;-58
2023/12/16 00:59:04;;;;;;;4.88;4.03;;;9.20;60.50;;;;;;345568;28;1111;-58
2023/12/16 00:59:16;;;;;;;5.57;4.43;;;9.20;60.50;;;;;;345571;28;1005;-58
2023/12/16 00:59:27;;;;;;;6.03;4.50;;;9.20;60.50;;;;;;345551;28;1095;-57
2023/12/16 00:59:37;;;;;;;6.80;4.68;;;9.20;60.50;;;;;;345621;28;2056;-58
2023/12/16 00:59:48;;;;;;;6.40;4.43;;;9.20;60.50;;;;;;345513;28;1519;-59
2023/12/16 00:59:59;;;;;;;6.33;4.23;;;9.20;60.50;;;;;;345556;28;948;-58